sensor_id;sensor_type;location;lat;lon;timestamp;temperature;humidity
72928;SHT30;61071;51.618;19.388;2023-02-16T00:00:20;0.13;93.05
72928;SHT30;61071;51.618;19.388;2023-02-16T00:02:46;0.24;92.75
72928;SHT30;61071;51.618;19.388;2023-02-16T00:05:33;0.26;92.09
72928;SHT30;61071;51.618;19.388;2023-02-16T00:08:00;0.36;92.28
72928;SHT30;61071;51.618;19.388;2023-02-16T00:10:31;0.30;92.05
72928;SHT30;61071;51.618;19.388;2023-02-16T00:12:58;0.44;91.70
72928;SHT30;61071;51.618;19.388;2023-02-16T00:15:49;0.37;91.20
72928;SHT30;61071;51.618;19.388;2023-02-16T00:18:20;0.16;92.23
72928;SHT30;61071;51.618;19.388;2023-02-16T00:20:47;0.13;92.67
72928;SHT30;61071;51.618;19.388;2023-02-16T00:23:13;0.05;92.97
72928;SHT30;61071;51.618;19.388;2023-02-16T00:25:39;0.26;92.88
72928;SHT30;61071;51.618;19.388;2023-02-16T00:28:15;0.15;92.49
72928;SHT30;61071;51.618;19.388;2023-02-16T00:30:42;0.24;92.35
72928;SHT30;61071;51.618;19.388;2023-02-16T00:33:19;0.23;92.12
72928;SHT30;61071;51.618;19.388;2023-02-16T00:35:51;0.32;92.00
72928;SHT30;61071;51.618;19.388;2023-02-16T00:38:16;0.26;91.99
72928;SHT30;61071;51.618;19.388;2023-02-16T00:40:47;0.33;91.47
72928;SHT30;61071;51.618;19.388;2023-02-16T00:43:27;0.56;90.44
72928;SHT30;61071;51.618;19.388;2023-02-16T00:45:54;0.46;90.70
72928;SHT30;61071;51.618;19.388;2023-02-16T00:48:21;0.33;90.83
72928;SHT30;61071;51.618;19.388;2023-02-16T00:50:59;0.29;90.89
72928;SHT30;61071;51.618;19.388;2023-02-16T00:53:30;0.34;91.06
72928;SHT30;61071;51.618;19.388;2023-02-16T00:55:56;0.30;91.15
72928;SHT30;61071;51.618;19.388;2023-02-16T00:58:28;0.15;91.18
72928;SHT30;61071;51.618;19.388;2023-02-16T01:01:10;0.10;91.21
72928;SHT30;61071;51.618;19.388;2023-02-16T01:03:37;0.12;91.91
72928;SHT30;61071;51.618;19.388;2023-02-16T01:06:03;0.26;91.41
72928;SHT30;61071;51.618;19.388;2023-02-16T01:08:47;0.09;91.46
72928;SHT30;61071;51.618;19.388;2023-02-16T01:11:31;0.03;91.88
72928;SHT30;61071;51.618;19.388;2023-02-16T01:13:57;-0.05;91.89
72928;SHT30;61071;51.618;19.388;2023-02-16T01:16:41;0.06;91.41
72928;SHT30;61071;51.618;19.388;2023-02-16T01:19:10;0.13;91.47
72928;SHT30;61071;51.618;19.388;2023-02-16T01:21:36;0.19;91.35
72928;SHT30;61071;51.618;19.388;2023-02-16T01:24:02;0.27;91.02
72928;SHT30;61071;51.618;19.388;2023-02-16T01:26:29;0.36;90.39
72928;SHT30;61071;51.618;19.388;2023-02-16T01:28:56;-0.05;91.36
72928;SHT30;61071;51.618;19.388;2023-02-16T01:31:22;0.03;91.43
72928;SHT30;61071;51.618;19.388;2023-02-16T01:33:47;0.05;91.33
72928;SHT30;61071;51.618;19.388;2023-02-16T01:36:25;-0.09;91.46
72928;SHT30;61071;51.618;19.388;2023-02-16T01:38:52;0.01;91.68
72928;SHT30;61071;51.618;19.388;2023-02-16T01:49:26;-0.06;91.30
72928;SHT30;61071;51.618;19.388;2023-02-16T01:52:40;0.02;90.60
72928;SHT30;61071;51.618;19.388;2023-02-16T01:55:24;-0.04;90.49
72928;SHT30;61071;51.618;19.388;2023-02-16T01:57:59;-0.08;90.59
72928;SHT30;61071;51.618;19.388;2023-02-16T02:03:20;0.01;90.12
72928;SHT30;61071;51.618;19.388;2023-02-16T02:06:13;0.09;89.96
72928;SHT30;61071;51.618;19.388;2023-02-16T02:11:25;0.10;89.45
72928;SHT30;61071;51.618;19.388;2023-02-16T02:16:32;-0.16;90.66
72928;SHT30;61071;51.618;19.388;2023-02-16T02:18:57;-0.30;91.37
72928;SHT30;61071;51.618;19.388;2023-02-16T02:22:18;-0.25;91.23
72928;SHT30;61071;51.618;19.388;2023-02-16T02:31:45;0.02;89.85
72928;SHT30;61071;51.618;19.388;2023-02-16T02:37:28;-0.05;90.26
72928;SHT30;61071;51.618;19.388;2023-02-16T02:46:26;-0.09;90.35
72928;SHT30;61071;51.618;19.388;2023-02-16T02:48:54;0.01;90.81
72928;SHT30;61071;51.618;19.388;2023-02-16T02:51:20;0.07;90.48
72928;SHT30;61071;51.618;19.388;2023-02-16T02:54:22;-0.14;90.55
72928;SHT30;61071;51.618;19.388;2023-02-16T02:57:24;-0.35;91.54
72928;SHT30;61071;51.618;19.388;2023-02-16T03:00:29;-0.29;91.68
72928;SHT30;61071;51.618;19.388;2023-02-16T03:03:33;-0.35;91.59
72928;SHT30;61071;51.618;19.388;2023-02-16T03:06:23;-0.19;91.12
72928;SHT30;61071;51.618;19.388;2023-02-16T03:08:58;-0.09;91.31
72928;SHT30;61071;51.618;19.388;2023-02-16T03:11:27;-0.25;91.31
72928;SHT30;61071;51.618;19.388;2023-02-16T03:14:25;-0.28;91.57
72928;SHT30;61071;51.618;19.388;2023-02-16T03:17:09;-0.28;91.28
72928;SHT30;61071;51.618;19.388;2023-02-16T03:19:57;-0.30;91.98
72928;SHT30;61071;51.618;19.388;2023-02-16T03:22:43;-0.23;91.29
72928;SHT30;61071;51.618;19.388;2023-02-16T03:25:32;-0.37;91.62
72928;SHT30;61071;51.618;19.388;2023-02-16T03:28:23;-0.22;91.22
72928;SHT30;61071;51.618;19.388;2023-02-16T03:31:14;-0.19;91.27
72928;SHT30;61071;51.618;19.388;2023-02-16T03:33:42;-0.30;91.17
72928;SHT30;61071;51.618;19.388;2023-02-16T03:36:08;-0.18;91.29
72928;SHT30;61071;51.618;19.388;2023-02-16T03:38:34;-0.15;91.08
72928;SHT30;61071;51.618;19.388;2023-02-16T03:41:00;-0.28;91.41
72928;SHT30;61071;51.618;19.388;2023-02-16T03:43:27;-0.18;91.29
72928;SHT30;61071;51.618;19.388;2023-02-16T03:45:53;-0.32;91.10
72928;SHT30;61071;51.618;19.388;2023-02-16T03:48:19;-0.23;91.30
72928;SHT30;61071;51.618;19.388;2023-02-16T03:50:45;-0.25;91.59
72928;SHT30;61071;51.618;19.388;2023-02-16T03:53:11;-0.26;91.49
72928;SHT30;61071;51.618;19.388;2023-02-16T03:55:46;-0.43;91.41
72928;SHT30;61071;51.618;19.388;2023-02-16T03:58:18;-0.44;91.75
72928;SHT30;61071;51.618;19.388;2023-02-16T04:00:44;-0.48;91.62
72928;SHT30;61071;51.618;19.388;2023-02-16T04:03:10;-0.29;91.37
72928;SHT30;61071;51.618;19.388;2023-02-16T04:05:37;-0.18;91.05
72928;SHT30;61071;51.618;19.388;2023-02-16T04:08:03;-0.25;90.65
72928;SHT30;61071;51.618;19.388;2023-02-16T04:10:29;-0.33;90.80
72928;SHT30;61071;51.618;19.388;2023-02-16T04:12:54;-0.32;91.00
72928;SHT30;61071;51.618;19.388;2023-02-16T04:15:24;-0.23;90.62
72928;SHT30;61071;51.618;19.388;2023-02-16T04:17:50;-0.29;90.89
72928;SHT30;61071;51.618;19.388;2023-02-16T04:20:23;-0.35;90.92
72928;SHT30;61071;51.618;19.388;2023-02-16T04:22:50;-0.26;90.53
72928;SHT30;61071;51.618;19.388;2023-02-16T04:25:17;-0.22;89.95
72928;SHT30;61071;51.618;19.388;2023-02-16T04:27:44;-0.26;90.00
72928;SHT30;61071;51.618;19.388;2023-02-16T04:30:19;-0.23;89.93
72928;SHT30;61071;51.618;19.388;2023-02-16T04:32:45;-0.26;90.01
72928;SHT30;61071;51.618;19.388;2023-02-16T04:35:11;-0.23;90.06
72928;SHT30;61071;51.618;19.388;2023-02-16T04:37:37;-0.44;90.48
72928;SHT30;61071;51.618;19.388;2023-02-16T04:40:05;-0.33;90.84
72928;SHT30;61071;51.618;19.388;2023-02-16T04:42:30;-0.28;90.18
72928;SHT30;61071;51.618;19.388;2023-02-16T04:44:56;-0.15;89.85
72928;SHT30;61071;51.618;19.388;2023-02-16T04:47:22;-0.30;90.04
72928;SHT30;61071;51.618;19.388;2023-02-16T04:49:50;-0.28;90.11
72928;SHT30;61071;51.618;19.388;2023-02-16T04:52:16;-0.23;89.88
72928;SHT30;61071;51.618;19.388;2023-02-16T04:54:41;-0.42;90.14
72928;SHT30;61071;51.618;19.388;2023-02-16T04:57:08;-0.29;90.29
72928;SHT30;61071;51.618;19.388;2023-02-16T04:59:35;-0.29;89.77
72928;SHT30;61071;51.618;19.388;2023-02-16T05:02:00;-0.40;89.88
72928;SHT30;61071;51.618;19.388;2023-02-16T05:04:27;-0.36;90.02
72928;SHT30;61071;51.618;19.388;2023-02-16T05:06:53;-0.23;89.72
72928;SHT30;61071;51.618;19.388;2023-02-16T05:09:19;-0.40;89.78
72928;SHT30;61071;51.618;19.388;2023-02-16T05:11:45;-0.35;90.06
72928;SHT30;61071;51.618;19.388;2023-02-16T05:14:33;-0.39;89.83
72928;SHT30;61071;51.618;19.388;2023-02-16T05:17:16;-0.35;89.73
72928;SHT30;61071;51.618;19.388;2023-02-16T05:19:45;-0.40;89.90
72928;SHT30;61071;51.618;19.388;2023-02-16T05:22:12;-0.33;89.88
72928;SHT30;61071;51.618;19.388;2023-02-16T05:24:38;-0.40;89.82
72928;SHT30;61071;51.618;19.388;2023-02-16T05:27:08;-0.35;89.93
72928;SHT30;61071;51.618;19.388;2023-02-16T05:29:34;-0.29;89.68
72928;SHT30;61071;51.618;19.388;2023-02-16T05:32:00;-0.37;89.61
72928;SHT30;61071;51.618;19.388;2023-02-16T05:34:26;-0.39;89.69
72928;SHT30;61071;51.618;19.388;2023-02-16T05:36:52;-0.37;89.74
72928;SHT30;61071;51.618;19.388;2023-02-16T05:39:18;-0.36;89.65
72928;SHT30;61071;51.618;19.388;2023-02-16T05:41:44;-0.39;89.37
72928;SHT30;61071;51.618;19.388;2023-02-16T05:44:12;-0.48;89.78
72928;SHT30;61071;51.618;19.388;2023-02-16T05:46:39;-0.44;89.84
72928;SHT30;61071;51.618;19.388;2023-02-16T05:49:06;-0.54;89.74
72928;SHT30;61071;51.618;19.388;2023-02-16T05:51:32;-0.52;90.52
72928;SHT30;61071;51.618;19.388;2023-02-16T05:53:58;-0.44;90.10
72928;SHT30;61071;51.618;19.388;2023-02-16T05:56:24;-0.32;89.54
72928;SHT30;61071;51.618;19.388;2023-02-16T05:58:51;-0.29;89.44
72928;SHT30;61071;51.618;19.388;2023-02-16T06:01:17;-0.37;89.22
72928;SHT30;61071;51.618;19.388;2023-02-16T06:03:43;-0.35;89.70
72928;SHT30;61071;51.618;19.388;2023-02-16T06:06:09;-0.40;89.57
72928;SHT30;61071;51.618;19.388;2023-02-16T06:08:35;-0.26;89.16
72928;SHT30;61071;51.618;19.388;2023-02-16T06:11:02;-0.36;89.25
72928;SHT30;61071;51.618;19.388;2023-02-16T06:13:32;-0.19;89.06
72928;SHT30;61071;51.618;19.388;2023-02-16T06:15:58;-0.30;89.43
72928;SHT30;61071;51.618;19.388;2023-02-16T06:18:25;-0.33;89.36
72928;SHT30;61071;51.618;19.388;2023-02-16T06:20:51;-0.30;89.59
72928;SHT30;61071;51.618;19.388;2023-02-16T06:23:17;-0.16;89.16
72928;SHT30;61071;51.618;19.388;2023-02-16T06:25:48;-0.19;89.07
72928;SHT30;61071;51.618;19.388;2023-02-16T06:28:13;-0.19;89.29
72928;SHT30;61071;51.618;19.388;2023-02-16T06:30:39;-0.06;89.10
72928;SHT30;61071;51.618;19.388;2023-02-16T06:33:07;-0.18;88.84
72928;SHT30;61071;51.618;19.388;2023-02-16T06:35:33;-0.19;89.35
72928;SHT30;61071;51.618;19.388;2023-02-16T06:37:59;-0.02;89.28
72928;SHT30;61071;51.618;19.388;2023-02-16T06:40:25;0.10;88.61
72928;SHT30;61071;51.618;19.388;2023-02-16T06:42:50;0.19;88.54
72928;SHT30;61071;51.618;19.388;2023-02-16T06:45:16;0.12;88.63
72928;SHT30;61071;51.618;19.388;2023-02-16T06:47:42;0.15;88.67
72928;SHT30;61071;51.618;19.388;2023-02-16T06:50:10;0.34;88.16
72928;SHT30;61071;51.618;19.388;2023-02-16T06:52:36;0.60;87.86
72928;SHT30;61071;51.618;19.388;2023-02-16T06:55:02;1.02;86.47
72928;SHT30;61071;51.618;19.388;2023-02-16T06:57:28;1.37;85.58
72928;SHT30;61071;51.618;19.388;2023-02-16T06:59:53;1.58;85.52
72928;SHT30;61071;51.618;19.388;2023-02-16T07:02:21;1.93;83.58
72928;SHT30;61071;51.618;19.388;2023-02-16T07:04:47;2.08;83.55
72928;SHT30;61071;51.618;19.388;2023-02-16T07:07:13;2.44;82.02
72928;SHT30;61071;51.618;19.388;2023-02-16T07:09:38;2.61;81.24
72928;SHT30;61071;51.618;19.388;2023-02-16T07:12:04;3.22;79.86
72928;SHT30;61071;51.618;19.388;2023-02-16T07:14:31;3.04;78.86
72928;SHT30;61071;51.618;19.388;2023-02-16T07:16:58;3.08;78.63
72928;SHT30;61071;51.618;19.388;2023-02-16T07:19:29;2.84;79.60
72928;SHT30;61071;51.618;19.388;2023-02-16T07:21:59;2.57;80.53
72928;SHT30;61071;51.618;19.388;2023-02-16T07:24:25;2.67;80.03
72928;SHT30;61071;51.618;19.388;2023-02-16T07:26:51;2.40;81.13
72928;SHT30;61071;51.618;19.388;2023-02-16T07:29:17;2.44;81.64
72928;SHT30;61071;51.618;19.388;2023-02-16T07:31:43;2.65;80.54
72928;SHT30;61071;51.618;19.388;2023-02-16T07:34:08;2.71;80.20
72928;SHT30;61071;51.618;19.388;2023-02-16T07:36:34;2.74;80.94
72928;SHT30;61071;51.618;19.388;2023-02-16T07:39:00;2.98;79.89
72928;SHT30;61071;51.618;19.388;2023-02-16T07:41:26;3.08;79.68
72928;SHT30;61071;51.618;19.388;2023-02-16T07:43:51;3.01;79.73
72928;SHT30;61071;51.618;19.388;2023-02-16T07:46:17;3.19;79.60
72928;SHT30;61071;51.618;19.388;2023-02-16T07:48:47;2.97;80.14
72928;SHT30;61071;51.618;19.388;2023-02-16T07:51:23;3.16;79.73
72928;SHT30;61071;51.618;19.388;2023-02-16T07:53:50;3.20;79.43
72928;SHT30;61071;51.618;19.388;2023-02-16T07:56:23;3.53;78.22
72928;SHT30;61071;51.618;19.388;2023-02-16T07:58:58;3.43;78.64
72928;SHT30;61071;51.618;19.388;2023-02-16T08:01:25;3.63;78.03
72928;SHT30;61071;51.618;19.388;2023-02-16T08:03:52;3.44;78.49
72928;SHT30;61071;51.618;19.388;2023-02-16T08:06:19;3.44;78.58
72928;SHT30;61071;51.618;19.388;2023-02-16T08:08:45;3.40;78.62
72928;SHT30;61071;51.618;19.388;2023-02-16T08:11:21;3.62;78.15
72928;SHT30;61071;51.618;19.388;2023-02-16T08:13:47;3.73;78.12
72928;SHT30;61071;51.618;19.388;2023-02-16T08:16:23;3.86;77.99
72928;SHT30;61071;51.618;19.388;2023-02-16T08:18:49;3.94;77.68
72928;SHT30;61071;51.618;19.388;2023-02-16T08:21:21;3.97;77.47
72928;SHT30;61071;51.618;19.388;2023-02-16T08:23:57;3.95;77.26
72928;SHT30;61071;51.618;19.388;2023-02-16T08:26:26;3.90;78.02
72928;SHT30;61071;51.618;19.388;2023-02-16T08:28:56;4.04;77.46
72928;SHT30;61071;51.618;19.388;2023-02-16T08:31:26;3.87;77.58
72928;SHT30;61071;51.618;19.388;2023-02-16T08:33:57;3.76;78.26
72928;SHT30;61071;51.618;19.388;2023-02-16T08:36:32;3.98;77.86
72928;SHT30;61071;51.618;19.388;2023-02-16T08:39:01;4.15;77.87
72928;SHT30;61071;51.618;19.388;2023-02-16T08:41:32;4.19;77.25
72928;SHT30;61071;51.618;19.388;2023-02-16T08:43:59;4.38;76.71
72928;SHT30;61071;51.618;19.388;2023-02-16T08:46:29;4.48;76.80
72928;SHT30;61071;51.618;19.388;2023-02-16T08:48:56;4.63;76.33
72928;SHT30;61071;51.618;19.388;2023-02-16T08:51:27;4.79;75.56
72928;SHT30;61071;51.618;19.388;2023-02-16T08:53:54;4.83;75.79
72928;SHT30;61071;51.618;19.388;2023-02-16T08:56:20;5.02;75.56
72928;SHT30;61071;51.618;19.388;2023-02-16T08:58:46;4.92;74.69
72928;SHT30;61071;51.618;19.388;2023-02-16T09:01:13;4.98;74.87
72928;SHT30;61071;51.618;19.388;2023-02-16T09:03:44;4.95;74.35
72928;SHT30;61071;51.618;19.388;2023-02-16T09:06:14;5.02;74.08
72928;SHT30;61071;51.618;19.388;2023-02-16T09:08:40;4.98;73.72
72928;SHT30;61071;51.618;19.388;2023-02-16T09:11:14;4.88;73.65
72928;SHT30;61071;51.618;19.388;2023-02-16T09:13:41;5.04;74.90
72928;SHT30;61071;51.618;19.388;2023-02-16T09:16:17;5.15;73.25
72928;SHT30;61071;51.618;19.388;2023-02-16T09:18:44;5.28;72.96
72928;SHT30;61071;51.618;19.388;2023-02-16T09:21:13;5.27;72.43
72928;SHT30;61071;51.618;19.388;2023-02-16T09:23:43;5.25;72.09
72928;SHT30;61071;51.618;19.388;2023-02-16T09:26:14;5.34;72.53
72928;SHT30;61071;51.618;19.388;2023-02-16T09:28:41;5.42;72.65
72928;SHT30;61071;51.618;19.388;2023-02-16T09:33:40;5.43;71.56
72928;SHT30;61071;51.618;19.388;2023-02-16T09:36:10;5.50;71.48
72928;SHT30;61071;51.618;19.388;2023-02-16T09:38:37;5.46;72.06
72928;SHT30;61071;51.618;19.388;2023-02-16T09:46:56;5.77;71.35
72928;SHT30;61071;51.618;19.388;2023-02-16T09:49:43;5.69;70.85
72928;SHT30;61071;51.618;19.388;2023-02-16T09:54:58;6.05;70.53
72928;SHT30;61071;51.618;19.388;2023-02-16T10:08:38;6.62;70.90
72928;SHT30;61071;51.618;19.388;2023-02-16T10:11:35;6.75;70.77
72928;SHT30;61071;51.618;19.388;2023-02-16T10:14:44;6.83;69.83
72928;SHT30;61071;51.618;19.388;2023-02-16T10:17:41;6.83;69.77
72928;SHT30;61071;51.618;19.388;2023-02-16T10:20:34;6.79;69.39
72928;SHT30;61071;51.618;19.388;2023-02-16T10:23:09;6.76;69.17
72928;SHT30;61071;51.618;19.388;2023-02-16T10:29:14;6.97;68.27
72928;SHT30;61071;51.618;19.388;2023-02-16T10:43:42;7.47;67.91
72928;SHT30;61071;51.618;19.388;2023-02-16T10:46:15;7.41;68.58
72928;SHT30;61071;51.618;19.388;2023-02-16T10:48:44;7.45;68.02
72928;SHT30;61071;51.618;19.388;2023-02-16T10:51:15;7.56;67.49
72928;SHT30;61071;51.618;19.388;2023-02-16T10:53:51;7.58;67.36
72928;SHT30;61071;51.618;19.388;2023-02-16T10:57:06;7.72;67.62
72928;SHT30;61071;51.618;19.388;2023-02-16T10:59:45;7.69;66.33
72928;SHT30;61071;51.618;19.388;2023-02-16T11:02:35;7.44;66.61
72928;SHT30;61071;51.618;19.388;2023-02-16T11:07:57;7.51;67.46
72928;SHT30;61071;51.618;19.388;2023-02-16T11:10:40;7.41;67.94
72928;SHT30;61071;51.618;19.388;2023-02-16T11:16:11;7.62;67.08
72928;SHT30;61071;51.618;19.388;2023-02-16T11:24:02;7.62;67.51
72928;SHT30;61071;51.618;19.388;2023-02-16T11:26:28;7.48;66.00
72928;SHT30;61071;51.618;19.388;2023-02-16T11:29:19;7.58;67.32
72928;SHT30;61071;51.618;19.388;2023-02-16T11:32:09;7.66;67.92
72928;SHT30;61071;51.618;19.388;2023-02-16T11:34:53;7.72;67.12
72928;SHT30;61071;51.618;19.388;2023-02-16T11:37:28;7.97;66.73
72928;SHT30;61071;51.618;19.388;2023-02-16T11:40:12;8.14;66.09
72928;SHT30;61071;51.618;19.388;2023-02-16T12:20:46;7.94;65.80
72928;SHT30;61071;51.618;19.388;2023-02-16T12:23:41;8.10;66.17
72928;SHT30;61071;51.618;19.388;2023-02-16T12:28:55;8.03;66.81
72928;SHT30;61071;51.618;19.388;2023-02-16T12:46:00;8.04;66.29
72928;SHT30;61071;51.618;19.388;2023-02-16T12:48:40;8.16;67.05
72928;SHT30;61071;51.618;19.388;2023-02-16T12:51:19;8.13;66.59
72928;SHT30;61071;51.618;19.388;2023-02-16T12:54:48;7.97;66.25
72928;SHT30;61071;51.618;19.388;2023-02-16T12:57:22;7.93;66.85
72928;SHT30;61071;51.618;19.388;2023-02-16T13:00:17;8.10;66.91
72928;SHT30;61071;51.618;19.388;2023-02-16T13:02:54;7.96;68.85
72928;SHT30;61071;51.618;19.388;2023-02-16T13:05:28;8.07;67.06
72928;SHT30;61071;51.618;19.388;2023-02-16T13:08:07;8.14;67.23
72928;SHT30;61071;51.618;19.388;2023-02-16T13:13:35;7.97;66.81
72928;SHT30;61071;51.618;19.388;2023-02-16T13:18:39;7.85;67.19
72928;SHT30;61071;51.618;19.388;2023-02-16T13:24:05;7.98;66.92
72928;SHT30;61071;51.618;19.388;2023-02-16T13:27:10;8.04;67.01
72928;SHT30;61071;51.618;19.388;2023-02-16T13:35:35;8.34;66.69
72928;SHT30;61071;51.618;19.388;2023-02-16T13:44:40;8.11;66.79
72928;SHT30;61071;51.618;19.388;2023-02-16T13:47:18;8.18;66.46
72928;SHT30;61071;51.618;19.388;2023-02-16T13:49:46;8.23;67.12
72928;SHT30;61071;51.618;19.388;2023-02-16T13:52:37;8.11;66.33
72928;SHT30;61071;51.618;19.388;2023-02-16T13:55:33;8.25;67.09
72928;SHT30;61071;51.618;19.388;2023-02-16T14:00:43;8.21;66.93
72928;SHT30;61071;51.618;19.388;2023-02-16T14:20:01;8.18;67.27
72928;SHT30;61071;51.618;19.388;2023-02-16T14:27:59;8.28;66.16
72928;SHT30;61071;51.618;19.388;2023-02-16T14:36:18;8.14;66.34
72928;SHT30;61071;51.618;19.388;2023-02-16T14:38:47;8.18;67.15
72928;SHT30;61071;51.618;19.388;2023-02-16T14:41:33;8.23;67.17
72928;SHT30;61071;51.618;19.388;2023-02-16T14:58:30;8.30;66.48
72928;SHT30;61071;51.618;19.388;2023-02-16T15:01:12;8.30;66.12
72928;SHT30;61071;51.618;19.388;2023-02-16T15:03:52;8.14;66.77
72928;SHT30;61071;51.618;19.388;2023-02-16T15:08:55;7.90;67.93
72928;SHT30;61071;51.618;19.388;2023-02-16T15:11:42;7.91;68.00
72928;SHT30;61071;51.618;19.388;2023-02-16T15:14:46;7.82;68.21
72928;SHT30;61071;51.618;19.388;2023-02-16T15:19:54;7.61;69.01
72928;SHT30;61071;51.618;19.388;2023-02-16T15:22:24;7.45;69.92
72928;SHT30;61071;51.618;19.388;2023-02-16T15:25:06;7.30;70.29
72928;SHT30;61071;51.618;19.388;2023-02-16T15:27:32;7.30;70.61
72928;SHT30;61071;51.618;19.388;2023-02-16T15:30:22;7.11;71.12
72928;SHT30;61071;51.618;19.388;2023-02-16T15:38:30;6.96;71.62
72928;SHT30;61071;51.618;19.388;2023-02-16T15:41:22;6.83;71.88
72928;SHT30;61071;51.618;19.388;2023-02-16T15:43:50;6.84;71.76
72928;SHT30;61071;51.618;19.388;2023-02-16T15:46:39;6.90;71.51
72928;SHT30;61071;51.618;19.388;2023-02-16T15:49:20;6.83;71.56
72928;SHT30;61071;51.618;19.388;2023-02-16T15:51:46;6.72;71.98
72928;SHT30;61071;51.618;19.388;2023-02-16T15:54:23;6.63;72.34
72928;SHT30;61071;51.618;19.388;2023-02-16T15:56:58;6.62;72.45
72928;SHT30;61071;51.618;19.388;2023-02-16T15:59:49;6.48;72.85
72928;SHT30;61071;51.618;19.388;2023-02-16T16:02:38;6.50;72.74
72928;SHT30;61071;51.618;19.388;2023-02-16T16:05:18;6.38;72.95
72928;SHT30;61071;51.618;19.388;2023-02-16T16:07:48;6.28;73.49
72928;SHT30;61071;51.618;19.388;2023-02-16T16:10:24;6.05;73.96
72928;SHT30;61071;51.618;19.388;2023-02-16T16:13:00;6.14;73.97
72928;SHT30;61071;51.618;19.388;2023-02-16T16:15:29;6.08;74.19
72928;SHT30;61071;51.618;19.388;2023-02-16T16:18:00;5.78;74.82
72928;SHT30;61071;51.618;19.388;2023-02-16T16:20:38;5.77;74.95
72928;SHT30;61071;51.618;19.388;2023-02-16T16:23:24;5.77;74.65
72928;SHT30;61071;51.618;19.388;2023-02-16T16:25:52;5.73;75.06
72928;SHT30;61071;51.618;19.388;2023-02-16T16:31:29;5.59;75.37
72928;SHT30;61071;51.618;19.388;2023-02-16T16:34:10;5.35;75.77
72928;SHT30;61071;51.618;19.388;2023-02-16T16:36:54;5.11;76.73
72928;SHT30;61071;51.618;19.388;2023-02-16T16:39:28;5.14;77.01
72928;SHT30;61071;51.618;19.388;2023-02-16T16:44:52;4.85;77.79
72928;SHT30;61071;51.618;19.388;2023-02-16T16:47:36;4.97;77.67
72928;SHT30;61071;51.618;19.388;2023-02-16T16:52:51;4.91;77.84
72928;SHT30;61071;51.618;19.388;2023-02-16T16:57:59;5.00;77.51
72928;SHT30;61071;51.618;19.388;2023-02-16T17:00:33;5.02;77.30
72928;SHT30;61071;51.618;19.388;2023-02-16T17:03:01;5.01;77.26
72928;SHT30;61071;51.618;19.388;2023-02-16T17:05:26;4.95;77.55
72928;SHT30;61071;51.618;19.388;2023-02-16T17:07:52;4.97;77.32
72928;SHT30;61071;51.618;19.388;2023-02-16T17:10:20;4.87;77.82
72928;SHT30;61071;51.618;19.388;2023-02-16T17:12:50;4.81;77.81
72928;SHT30;61071;51.618;19.388;2023-02-16T17:15:30;4.67;77.98
72928;SHT30;61071;51.618;19.388;2023-02-16T17:17:56;4.67;78.49
72928;SHT30;61071;51.618;19.388;2023-02-16T17:20:23;4.73;78.38
72928;SHT30;61071;51.618;19.388;2023-02-16T17:22:49;4.73;78.23
72928;SHT30;61071;51.618;19.388;2023-02-16T17:25:15;4.66;78.77
72928;SHT30;61071;51.618;19.388;2023-02-16T17:27:41;4.48;79.24
72928;SHT30;61071;51.618;19.388;2023-02-16T17:30:07;4.64;78.88
72928;SHT30;61071;51.618;19.388;2023-02-16T17:32:33;4.57;79.06
72928;SHT30;61071;51.618;19.388;2023-02-16T17:34:58;4.52;79.19
72928;SHT30;61071;51.618;19.388;2023-02-16T17:37:24;4.53;79.15
72928;SHT30;61071;51.618;19.388;2023-02-16T17:39:50;4.53;79.13
72928;SHT30;61071;51.618;19.388;2023-02-16T17:42:15;4.33;79.86
72928;SHT30;61071;51.618;19.388;2023-02-16T17:44:41;4.48;79.26
72928;SHT30;61071;51.618;19.388;2023-02-16T17:47:13;4.42;79.32
72928;SHT30;61071;51.618;19.388;2023-02-16T17:49:39;4.36;79.79
72928;SHT30;61071;51.618;19.388;2023-02-16T17:52:12;4.28;79.69
72928;SHT30;61071;51.618;19.388;2023-02-16T17:54:38;4.25;80.20
72928;SHT30;61071;51.618;19.388;2023-02-16T17:57:04;4.29;80.29
72928;SHT30;61071;51.618;19.388;2023-02-16T17:59:30;4.39;79.81
72928;SHT30;61071;51.618;19.388;2023-02-16T18:01:57;4.28;79.87
72928;SHT30;61071;51.618;19.388;2023-02-16T18:04:23;4.26;80.21
72928;SHT30;61071;51.618;19.388;2023-02-16T18:08:26;4.22;80.31
72928;SHT30;61071;51.618;19.388;2023-02-16T18:10:53;4.15;80.62
72928;SHT30;61071;51.618;19.388;2023-02-16T18:13:29;4.18;80.59
72928;SHT30;61071;51.618;19.388;2023-02-16T18:15:58;4.21;80.45
72928;SHT30;61071;51.618;19.388;2023-02-16T18:18:28;4.21;80.65
72928;SHT30;61071;51.618;19.388;2023-02-16T18:20:55;4.21;80.63
72928;SHT30;61071;51.618;19.388;2023-02-16T18:23:20;4.11;81.05
72928;SHT30;61071;51.618;19.388;2023-02-16T18:25:46;4.15;80.94
72928;SHT30;61071;51.618;19.388;2023-02-16T18:28:16;4.22;80.56
72928;SHT30;61071;51.618;19.388;2023-02-16T18:30:47;4.15;80.56
72928;SHT30;61071;51.618;19.388;2023-02-16T18:33:16;4.05;80.79
72928;SHT30;61071;51.618;19.388;2023-02-16T18:35:42;4.08;80.95
72928;SHT30;61071;51.618;19.388;2023-02-16T18:38:08;4.12;80.83
72928;SHT30;61071;51.618;19.388;2023-02-16T18:40:34;4.14;80.63
72928;SHT30;61071;51.618;19.388;2023-02-16T18:43:00;4.11;80.78
72928;SHT30;61071;51.618;19.388;2023-02-16T18:45:26;4.09;80.49
72928;SHT30;61071;51.618;19.388;2023-02-16T18:47:51;4.15;80.65
72928;SHT30;61071;51.618;19.388;2023-02-16T18:50:17;4.12;80.73
72928;SHT30;61071;51.618;19.388;2023-02-16T18:52:43;4.11;80.88
72928;SHT30;61071;51.618;19.388;2023-02-16T18:55:12;4.04;80.81
72928;SHT30;61071;51.618;19.388;2023-02-16T18:57:40;4.09;80.72
72928;SHT30;61071;51.618;19.388;2023-02-16T19:00:08;4.09;80.76
72928;SHT30;61071;51.618;19.388;2023-02-16T19:02:34;3.95;80.96
72928;SHT30;61071;51.618;19.388;2023-02-16T19:05:00;3.98;81.26
72928;SHT30;61071;51.618;19.388;2023-02-16T19:07:26;3.97;81.19
72928;SHT30;61071;51.618;19.388;2023-02-16T19:10:01;3.95;80.99
72928;SHT30;61071;51.618;19.388;2023-02-16T19:12:27;3.95;80.95
72928;SHT30;61071;51.618;19.388;2023-02-16T19:14:52;3.91;81.23
72928;SHT30;61071;51.618;19.388;2023-02-16T19:17:18;3.86;81.37
72928;SHT30;61071;51.618;19.388;2023-02-16T19:19:44;3.83;81.55
72928;SHT30;61071;51.618;19.388;2023-02-16T19:22:10;3.81;81.53
72928;SHT30;61071;51.618;19.388;2023-02-16T19:24:35;3.88;81.39
72928;SHT30;61071;51.618;19.388;2023-02-16T19:27:01;3.83;81.19
72928;SHT30;61071;51.618;19.388;2023-02-16T19:29:27;3.88;81.34
72928;SHT30;61071;51.618;19.388;2023-02-16T19:31:56;3.84;81.28
72928;SHT30;61071;51.618;19.388;2023-02-16T19:34:21;3.76;81.64
72928;SHT30;61071;51.618;19.388;2023-02-16T19:36:47;3.73;81.61
72928;SHT30;61071;51.618;19.388;2023-02-16T19:39:15;3.69;81.79
72928;SHT30;61071;51.618;19.388;2023-02-16T19:41:42;3.71;81.78
72928;SHT30;61071;51.618;19.388;2023-02-16T19:44:11;3.78;81.11